createdAt,value
2017-08-23T00:00:13.697Z,938.31
2017-08-23T00:00:41.884Z,938.28
2017-08-23T00:01:10.036Z,938.28
2017-08-23T00:01:38.234Z,938.33
2017-08-23T00:02:06.256Z,938.32
2017-08-23T00:02:34.526Z,938.29
2017-08-23T00:03:02.762Z,938.29
2017-08-23T00:03:30.932Z,938.3
2017-08-23T00:03:59.233Z,938.29
2017-08-23T00:04:27.258Z,938.26
2017-08-23T00:04:55.455Z,938.27
2017-08-23T00:05:23.710Z,938.25
2017-08-23T00:05:51.818Z,938.27
2017-08-23T00:06:20.041Z,938.25
2017-08-23T00:06:48.315Z,938.23
2017-08-23T00:07:16.362Z,938.22
2017-08-23T00:07:44.476Z,938.21
2017-08-23T00:08:12.570Z,938.17
2017-08-23T00:08:40.730Z,938.17
2017-08-23T00:09:09.079Z,938.15
2017-08-23T00:09:37.235Z,938.15
2017-08-23T00:10:05.410Z,938.14
2017-08-23T00:10:33.611Z,938.14
2017-08-23T00:11:01.870Z,938.09
2017-08-23T00:11:30.112Z,938.08
2017-08-23T00:11:58.286Z,938.08
2017-08-23T00:12:26.499Z,938.09
2017-08-23T00:12:54.715Z,938.12
2017-08-23T00:13:22.872Z,938.09
2017-08-23T00:13:51.281Z,938.1
2017-08-23T00:14:19.396Z,938.04
2017-08-23T00:14:47.625Z,938.11
2017-08-23T00:15:15.849Z,938.04
2017-08-23T00:15:44.064Z,938.08
2017-08-23T00:16:12.329Z,938.07
2017-08-23T00:16:40.551Z,938.08
2017-08-23T00:17:08.660Z,938.11
2017-08-23T00:17:36.855Z,938.04
2017-08-23T00:18:05.087Z,938.09
2017-08-23T00:18:33.323Z,938.07
2017-08-23T00:19:01.509Z,938.05
2017-08-23T00:19:29.745Z,938.11
2017-08-23T00:19:57.864Z,938.07
2017-08-23T00:20:26.090Z,938.08
2017-08-23T00:20:54.302Z,938.12
2017-08-23T00:21:22.426Z,938.12
2017-08-23T00:21:50.445Z,938.12
2017-08-23T00:22:18.694Z,938.12
2017-08-23T00:22:46.898Z,938.09
2017-08-23T00:23:15.170Z,938.13
2017-08-23T00:23:43.115Z,938.15
2017-08-23T00:24:11.391Z,938.19
2017-08-23T00:24:39.512Z,938.17
2017-08-23T00:25:07.669Z,938.18
2017-08-23T00:25:35.868Z,938.19
2017-08-23T00:26:04.118Z,938.17
2017-08-23T00:26:32.117Z,938.18
2017-08-23T00:27:00.361Z,938.21
2017-08-23T00:27:28.578Z,938.23
2017-08-23T00:27:56.835Z,938.18
2017-08-23T00:28:25.035Z,938.21
2017-08-23T00:28:53.186Z,938.22
2017-08-23T00:29:21.498Z,938.21
2017-08-23T00:29:49.729Z,938.21
2017-08-23T00:30:17.912Z,938.21
2017-08-23T00:30:46.167Z,938.21
2017-08-23T00:31:14.376Z,938.22
2017-08-23T00:31:42.504Z,938.21
2017-08-23T00:32:10.545Z,938.15
2017-08-23T00:32:38.863Z,938.2
2017-08-23T00:33:07.140Z,938.17
2017-08-23T00:33:35.264Z,938.22
2017-08-23T00:34:03.517Z,938.2
2017-08-23T00:34:31.751Z,938.18
2017-08-23T00:34:59.805Z,938.19
2017-08-23T00:35:27.975Z,938.17
2017-08-23T00:35:56.142Z,938.18
2017-08-23T00:36:24.269Z,938.19
2017-08-23T00:36:52.422Z,938.22
2017-08-23T00:37:20.459Z,938.22
2017-08-23T00:37:48.589Z,938.16
2017-08-23T00:38:16.804Z,938.16
2017-08-23T00:38:45.051Z,938.16
2017-08-23T00:39:13.273Z,938.13
2017-08-23T00:39:41.543Z,938.18
2017-08-23T00:40:09.709Z,938.16
2017-08-23T00:40:37.977Z,938.16
2017-08-23T00:41:06.181Z,938.16
2017-08-23T00:41:34.274Z,938.17
2017-08-23T00:42:02.436Z,938.17
2017-08-23T00:42:30.712Z,938.12
2017-08-23T00:42:58.862Z,938.12
2017-08-23T00:43:27.016Z,938.1
2017-08-23T00:43:55.258Z,938.12
2017-08-23T00:44:23.362Z,938.16
2017-08-23T00:44:51.614Z,938.12
2017-08-23T00:45:19.802Z,938.09
2017-08-23T00:45:47.846Z,938.09
2017-08-23T00:46:15.986Z,938.11
2017-08-23T00:46:44.201Z,938.06
2017-08-23T00:47:12.218Z,938.11
2017-08-23T00:47:40.333Z,938.04
2017-08-23T00:48:08.497Z,938.01
2017-08-23T00:48:36.637Z,938.02
2017-08-23T00:49:04.678Z,938.05
2017-08-23T00:49:33.042Z,938.06
2017-08-23T00:50:01.193Z,938.03
2017-08-23T00:50:29.411Z,938.08
2017-08-23T00:50:57.414Z,938.03
2017-08-23T00:51:25.560Z,938.03
2017-08-23T00:51:53.808Z,938.04
2017-08-23T00:52:22.004Z,938.02
2017-08-23T00:52:50.260Z,938.05
2017-08-23T00:53:18.561Z,938.01
2017-08-23T00:53:46.669Z,938.02
2017-08-23T00:54:14.882Z,937.97
2017-08-23T00:54:43.044Z,937.99
2017-08-23T00:55:11.280Z,938.05
2017-08-23T00:55:39.477Z,938.06
2017-08-23T00:56:07.509Z,938.06
2017-08-23T00:56:35.625Z,938.03
2017-08-23T00:57:03.842Z,938.03
2017-08-23T00:57:31.914Z,938.01
2017-08-23T00:58:00.076Z,938.05
2017-08-23T00:58:28.130Z,938.05
2017-08-23T00:58:56.153Z,938.05
2017-08-23T00:59:24.308Z,938.06
2017-08-23T00:59:52.547Z,938.02
2017-08-23T01:00:20.599Z,938.08
2017-08-23T01:00:48.804Z,938.06
2017-08-23T01:01:16.911Z,938.08
2017-08-23T01:01:45.121Z,938.05
2017-08-23T01:02:13.330Z,938.04
2017-08-23T01:02:41.428Z,938.1
2017-08-23T01:03:09.563Z,938.12
2017-08-23T01:03:37.740Z,938.08
2017-08-23T01:04:05.877Z,938.08
2017-08-23T01:04:33.901Z,938.11
2017-08-23T01:05:02.082Z,938.12
2017-08-23T01:05:30.235Z,938.09
2017-08-23T01:05:58.468Z,938.14
2017-08-23T01:06:26.690Z,938.15
2017-08-23T01:06:54.762Z,938.17
2017-08-23T01:07:22.886Z,938.15
2017-08-23T01:07:51.047Z,938.15
2017-08-23T01:08:19.074Z,938.11
2017-08-23T01:08:47.236Z,938.18
2017-08-23T01:09:15.471Z,938.14
2017-08-23T01:09:43.749Z,938.21
2017-08-23T01:10:11.793Z,938.21
2017-08-23T01:10:39.972Z,938.2
2017-08-23T01:11:08.132Z,938.22
2017-08-23T01:11:36.271Z,938.27
2017-08-23T01:12:04.484Z,938.23
2017-08-23T01:12:32.673Z,938.24
2017-08-23T01:13:00.979Z,938.26
2017-08-23T01:13:29.035Z,938.22
2017-08-23T01:13:57.193Z,938.27
2017-08-23T01:14:25.283Z,938.26
2017-08-23T01:14:53.422Z,938.3
2017-08-23T01:15:21.442Z,938.25
2017-08-23T01:15:49.620Z,938.23
2017-08-23T01:16:17.796Z,938.22
2017-08-23T01:16:45.960Z,938.24
2017-08-23T01:17:14.035Z,938.21
2017-08-23T01:17:42.166Z,938.2
2017-08-23T01:18:10.398Z,938.26
2017-08-23T01:18:38.598Z,938.23
2017-08-23T01:19:06.757Z,938.2
2017-08-23T01:19:34.890Z,938.26
2017-08-23T01:20:03.211Z,938.28
2017-08-23T01:20:31.352Z,938.26
2017-08-23T01:20:59.410Z,938.28
2017-08-23T01:21:27.568Z,938.26
2017-08-23T01:21:55.832Z,938.26
2017-08-23T01:22:24.086Z,938.26
2017-08-23T01:22:52.126Z,938.22
2017-08-23T01:23:20.393Z,938.25
2017-08-23T01:23:48.629Z,938.23
2017-08-23T01:24:16.722Z,938.23
2017-08-23T01:24:44.788Z,938.28
2017-08-23T01:25:12.882Z,938.27
2017-08-23T01:25:41.085Z,938.24
2017-08-23T01:26:09.340Z,938.24
2017-08-23T01:26:37.393Z,938.26
2017-08-23T01:27:05.553Z,938.25
2017-08-23T01:27:33.784Z,938.23
2017-08-23T01:28:02.052Z,938.29
2017-08-23T01:28:30.252Z,938.22
2017-08-23T01:28:58.389Z,938.21
2017-08-23T01:29:26.603Z,938.28
2017-08-23T01:29:54.969Z,938.28
2017-08-23T01:30:23.109Z,938.23
2017-08-23T01:30:51.026Z,938.21
2017-08-23T01:31:19.193Z,938.25
2017-08-23T01:31:47.262Z,938.21
2017-08-23T01:32:15.289Z,938.22
2017-08-23T01:32:43.503Z,938.21
2017-08-23T01:33:11.760Z,938.23
2017-08-23T01:33:39.898Z,938.23
2017-08-23T01:34:07.966Z,938.19
2017-08-23T01:34:36.248Z,938.16
2017-08-23T01:35:04.380Z,938.18
2017-08-23T01:35:32.612Z,938.14
2017-08-23T01:36:00.792Z,938.17
2017-08-23T01:36:28.869Z,938.13
2017-08-23T01:36:57.101Z,938.16
2017-08-23T01:37:25.233Z,938.14
2017-08-23T01:37:53.190Z,938.14
2017-08-23T01:38:21.393Z,938.15
2017-08-23T01:38:49.612Z,938.18
2017-08-23T01:39:17.549Z,938.17
2017-08-23T01:39:45.585Z,938.11
2017-08-23T01:40:13.889Z,938.14
2017-08-23T01:40:42.042Z,938.17
2017-08-23T01:41:10.291Z,938.14
2017-08-23T01:41:38.411Z,938.19
2017-08-23T01:42:06.536Z,938.18
2017-08-23T01:42:34.740Z,938.18
2017-08-23T01:43:02.842Z,938.22
2017-08-23T01:43:31.034Z,938.08
2017-08-23T01:43:59.170Z,938.13
2017-08-23T01:44:27.326Z,938.14
2017-08-23T01:44:55.600Z,938.17
2017-08-23T01:45:23.772Z,938.2
2017-08-23T01:45:51.957Z,938.14
2017-08-23T01:46:20.168Z,938.19
2017-08-23T01:46:48.405Z,938.18
2017-08-23T01:47:16.531Z,938.17
2017-08-23T01:47:44.692Z,938.16
2017-08-23T01:48:12.829Z,938.19
2017-08-23T01:48:40.897Z,938.15
2017-08-23T01:49:09.116Z,938.17
2017-08-23T01:49:37.266Z,938.16
2017-08-23T01:50:05.383Z,938.21
2017-08-23T01:50:33.722Z,938.17
2017-08-23T01:51:01.909Z,938.17
2017-08-23T01:51:30.171Z,938.18
2017-08-23T01:51:58.345Z,938.21
2017-08-23T01:52:26.522Z,938.16
2017-08-23T01:52:54.713Z,938.15
2017-08-23T01:53:22.738Z,938.11
2017-08-23T01:53:50.970Z,938.15
2017-08-23T01:54:19.127Z,938.14
2017-08-23T01:54:47.271Z,938.15
2017-08-23T01:55:15.508Z,938.11
2017-08-23T01:55:43.769Z,938.08
2017-08-23T01:56:12.035Z,938.1
2017-08-23T01:56:40.094Z,938.1
2017-08-23T01:57:08.340Z,938.15
2017-08-23T01:57:36.548Z,938.04
2017-08-23T01:58:04.684Z,938.06
2017-08-23T01:58:32.635Z,938.04
2017-08-23T01:59:00.828Z,938.11
2017-08-23T01:59:29.026Z,938.04
2017-08-23T01:59:57.283Z,938.09
2017-08-23T02:00:25.610Z,938.1
2017-08-23T02:00:53.833Z,938.06
2017-08-23T02:01:21.977Z,938.07
2017-08-23T02:01:50.239Z,938.15
2017-08-23T02:02:18.228Z,938.06
2017-08-23T02:02:46.438Z,938.08
2017-08-23T02:03:14.701Z,938.03
2017-08-23T02:03:42.871Z,938.06
2017-08-23T02:04:11.146Z,938.05
2017-08-23T02:04:39.452Z,938.06
2017-08-23T02:05:07.659Z,938.02
2017-08-23T02:05:35.954Z,938.06
2017-08-23T02:06:04.082Z,938.08
2017-08-23T02:06:32.282Z,938.04
2017-08-23T02:07:00.372Z,938.05
2017-08-23T02:07:28.648Z,938.06
2017-08-23T02:07:56.909Z,938.08
2017-08-23T02:08:25.157Z,938.03
2017-08-23T02:08:53.372Z,938.02
2017-08-23T02:09:21.483Z,938.06
2017-08-23T02:09:49.679Z,938.04
2017-08-23T02:10:17.941Z,938.08
2017-08-23T02:10:46.322Z,938.12
2017-08-23T02:11:14.438Z,938.07
2017-08-23T02:11:42.583Z,938.03
2017-08-23T02:12:10.829Z,938.07
2017-08-23T02:12:39.099Z,938
2017-08-23T02:13:07.140Z,938
2017-08-23T02:13:35.315Z,938.03
2017-08-23T02:14:03.418Z,938.05
2017-08-23T02:14:31.589Z,938.04
2017-08-23T02:14:59.745Z,938.02
2017-08-23T02:15:27.965Z,937.99
2017-08-23T02:15:56.291Z,938.03
2017-08-23T02:16:24.491Z,938
2017-08-23T02:16:52.758Z,937.97
2017-08-23T02:17:20.818Z,937.98
2017-08-23T02:17:49.062Z,937.96
2017-08-23T02:18:17.224Z,937.95
2017-08-23T02:18:45.364Z,937.99
2017-08-23T02:19:13.491Z,937.92
2017-08-23T02:19:41.789Z,937.87
2017-08-23T02:20:09.885Z,937.78
2017-08-23T02:20:38.165Z,937.84
2017-08-23T02:21:06.420Z,937.94
2017-08-23T02:21:34.694Z,937.88
2017-08-23T02:22:02.937Z,937.92
2017-08-23T02:22:31.256Z,937.86
2017-08-23T02:22:59.417Z,937.83
2017-08-23T02:23:27.688Z,937.89
2017-08-23T02:23:55.892Z,937.92
2017-08-23T02:24:24.118Z,937.96
2017-08-23T02:24:52.326Z,937.91
2017-08-23T02:25:20.524Z,937.88
2017-08-23T02:25:48.673Z,937.92
2017-08-23T02:26:16.857Z,937.85
2017-08-23T02:26:44.919Z,937.87
2017-08-23T02:27:12.999Z,937.89
2017-08-23T02:27:41.028Z,937.85
2017-08-23T02:28:09.240Z,937.9
2017-08-23T02:28:37.444Z,937.88
2017-08-23T02:29:05.709Z,937.86
2017-08-23T02:29:33.929Z,937.86
2017-08-23T02:30:01.867Z,937.88
2017-08-23T02:30:29.987Z,937.8
2017-08-23T02:30:57.963Z,937.84
2017-08-23T02:31:25.988Z,937.81
2017-08-23T02:31:54.006Z,937.78
2017-08-23T02:32:22.210Z,937.78
2017-08-23T02:32:50.231Z,937.73
2017-08-23T02:33:18.282Z,937.73
2017-08-23T02:33:46.418Z,937.74
2017-08-23T02:34:14.556Z,937.76
2017-08-23T02:34:42.675Z,937.69
2017-08-23T02:35:10.915Z,937.71
2017-08-23T02:35:38.903Z,937.7
2017-08-23T02:36:07.022Z,937.7
2017-08-23T02:36:35.177Z,937.72
2017-08-23T02:37:03.436Z,937.67
2017-08-23T02:37:31.588Z,937.72
2017-08-23T02:37:59.826Z,937.68
2017-08-23T02:38:27.894Z,937.72
2017-08-23T02:38:56.191Z,937.7
2017-08-23T02:39:24.229Z,937.68
2017-08-23T02:39:52.480Z,937.61
2017-08-23T02:40:20.528Z,937.66
2017-08-23T02:40:48.678Z,937.69
2017-08-23T02:41:16.769Z,937.69
2017-08-23T02:41:45.037Z,937.7
2017-08-23T02:42:13.140Z,937.69
2017-08-23T02:42:41.243Z,937.67
2017-08-23T02:43:09.407Z,937.67
2017-08-23T02:43:37.610Z,937.7
2017-08-23T02:44:05.763Z,937.67
2017-08-23T02:44:33.846Z,937.65
2017-08-23T02:45:01.946Z,937.67
2017-08-23T02:45:30.061Z,937.61
2017-08-23T02:45:58.281Z,937.62
2017-08-23T02:46:26.544Z,937.64
2017-08-23T02:46:54.633Z,937.68
2017-08-23T02:47:22.815Z,937.63
2017-08-23T02:47:50.841Z,937.61
2017-08-23T02:48:19.007Z,937.58
2017-08-23T02:48:47.233Z,937.64
2017-08-23T02:49:15.514Z,937.54
2017-08-23T02:49:43.485Z,937.6
2017-08-23T02:50:11.469Z,937.64
2017-08-23T02:50:39.606Z,937.57
2017-08-23T02:51:07.815Z,937.5
2017-08-23T02:51:36.034Z,937.62
2017-08-23T02:52:04.286Z,937.56
2017-08-23T02:52:32.540Z,937.56
2017-08-23T02:53:00.683Z,937.56
2017-08-23T02:53:28.924Z,937.54
2017-08-23T02:53:57.142Z,937.53
2017-08-23T02:54:25.202Z,937.53
2017-08-23T02:54:53.348Z,937.55
2017-08-23T02:55:21.606Z,937.51
2017-08-23T02:55:49.746Z,937.51
2017-08-23T02:56:18.065Z,937.49
2017-08-23T02:56:46.174Z,937.49
2017-08-23T02:57:14.410Z,937.46
2017-08-23T02:57:42.673Z,937.41
2017-08-23T02:58:10.874Z,937.46
2017-08-23T02:58:39.138Z,937.48
2017-08-23T02:59:07.418Z,937.49
2017-08-23T02:59:35.519Z,937.5
2017-08-23T03:00:03.651Z,937.45
2017-08-23T03:00:31.896Z,937.49
2017-08-23T03:00:59.976Z,937.5
2017-08-23T03:01:28.163Z,937.48
2017-08-23T03:01:56.145Z,937.47
2017-08-23T03:02:24.394Z,937.53
2017-08-23T03:02:52.655Z,937.53
2017-08-23T03:03:20.787Z,937.53
2017-08-23T03:03:48.950Z,937.49
2017-08-23T03:04:17.255Z,937.51
2017-08-23T03:04:45.303Z,937.53
2017-08-23T03:05:13.443Z,937.49
2017-08-23T03:05:41.612Z,937.52
2017-08-23T03:06:09.836Z,937.5
2017-08-23T03:06:38.161Z,937.52
2017-08-23T03:07:06.315Z,937.5
2017-08-23T03:07:34.548Z,937.46
2017-08-23T03:08:02.797Z,937.54
2017-08-23T03:08:31.031Z,937.52
2017-08-23T03:08:59.283Z,937.53
2017-08-23T03:09:27.416Z,937.54
2017-08-23T03:09:55.676Z,937.51
2017-08-23T03:10:23.895Z,937.48
2017-08-23T03:10:52.014Z,937.48
2017-08-23T03:11:20.396Z,937.49
2017-08-23T03:11:48.653Z,937.48
2017-08-23T03:12:16.866Z,937.46
2017-08-23T03:12:44.928Z,937.45
2017-08-23T03:13:13.137Z,937.43
2017-08-23T03:13:41.383Z,937.45
2017-08-23T03:14:09.639Z,937.42
2017-08-23T03:14:37.850Z,937.43
2017-08-23T03:15:06.002Z,937.34
2017-08-23T03:15:34.008Z,937.38
2017-08-23T03:16:02.244Z,937.38
2017-08-23T03:16:30.398Z,937.34
2017-08-23T03:16:58.551Z,937.34
2017-08-23T03:17:26.662Z,937.32
2017-08-23T03:17:54.824Z,937.31
2017-08-23T03:18:23.010Z,937.34
2017-08-23T03:18:51.176Z,937.35
2017-08-23T03:19:19.283Z,937.34
2017-08-23T03:19:47.559Z,937.32
2017-08-23T03:20:15.806Z,937.33
2017-08-23T03:20:44.053Z,937.32
2017-08-23T03:21:12.317Z,937.32
2017-08-23T03:21:40.679Z,937.33
2017-08-23T03:22:08.931Z,937.28
2017-08-23T03:22:37.189Z,937.32
2017-08-23T03:23:05.281Z,937.28
2017-08-23T03:23:33.484Z,937.32
2017-08-23T03:24:01.734Z,937.28
2017-08-23T03:24:29.870Z,937.28
2017-08-23T03:24:58.095Z,937.24
2017-08-23T03:25:26.147Z,937.28
2017-08-23T03:25:54.320Z,937.27
2017-08-23T03:26:22.471Z,937.27
2017-08-23T03:26:50.757Z,937.3
2017-08-23T03:27:19.018Z,937.32
2017-08-23T03:27:47.288Z,937.32
2017-08-23T03:28:15.547Z,937.35
2017-08-23T03:28:43.507Z,937.32
2017-08-23T03:29:11.721Z,937.36
2017-08-23T03:29:39.893Z,937.28
2017-08-23T03:30:08.031Z,937.34
2017-08-23T03:30:36.199Z,937.36
2017-08-23T03:31:04.365Z,937.37
2017-08-23T03:31:32.560Z,937.37
2017-08-23T03:32:00.858Z,937.41
2017-08-23T03:32:29.117Z,937.34
2017-08-23T03:32:57.256Z,937.31
2017-08-23T03:33:25.454Z,937.34
2017-08-23T03:33:53.714Z,937.27
2017-08-23T03:34:21.812Z,937.31
2017-08-23T03:34:49.933Z,937.28
2017-08-23T03:35:18.175Z,937.26
2017-08-23T03:35:46.234Z,937.26
2017-08-23T03:36:14.373Z,937.2
2017-08-23T03:36:42.633Z,937.23
2017-08-23T03:37:10.890Z,937.18
2017-08-23T03:37:39.173Z,937.18
2017-08-23T03:38:07.388Z,937.17
2017-08-23T03:38:35.408Z,937.24
2017-08-23T03:39:03.592Z,937.23
2017-08-23T03:39:31.846Z,937.18
2017-08-23T03:39:59.977Z,937.15
2017-08-23T03:40:28.176Z,937.19
2017-08-23T03:40:56.456Z,937.19
2017-08-23T03:41:24.707Z,937.18
2017-08-23T03:41:53.038Z,937.2
2017-08-23T03:42:21.253Z,937.21
2017-08-23T03:42:49.513Z,937.23
2017-08-23T03:43:17.774Z,937.22
2017-08-23T03:43:46.050Z,937.17
2017-08-23T03:44:14.203Z,937.16
2017-08-23T03:44:42.392Z,937.17
2017-08-23T03:45:10.540Z,937.11
2017-08-23T03:45:38.797Z,937.15
2017-08-23T03:46:07.069Z,937.16
2017-08-23T03:46:35.293Z,937.16
2017-08-23T03:47:03.638Z,937.16
2017-08-23T03:47:31.707Z,937.15
2017-08-23T03:47:59.826Z,937.13
2017-08-23T03:48:27.996Z,937.1
2017-08-23T03:48:56.232Z,937.08
2017-08-23T03:49:24.377Z,937.11
2017-08-23T03:49:52.558Z,937.11
2017-08-23T03:50:20.762Z,937.07
2017-08-23T03:50:48.953Z,937.02
2017-08-23T03:51:17.038Z,937.11
2017-08-23T03:51:45.216Z,937.08
2017-08-23T03:52:13.346Z,937.05
2017-08-23T03:52:41.611Z,937.02
2017-08-23T03:53:09.628Z,937.02
2017-08-23T03:53:37.702Z,936.98
2017-08-23T03:54:05.854Z,936.99
2017-08-23T03:54:34.076Z,937.01
2017-08-23T03:55:02.255Z,936.98
2017-08-23T03:55:30.488Z,937.01
2017-08-23T03:55:58.671Z,937
2017-08-23T03:56:26.662Z,937.01
2017-08-23T03:56:54.916Z,937.01
2017-08-23T03:57:23.120Z,936.98
2017-08-23T03:57:51.341Z,936.93
2017-08-23T03:58:19.566Z,937.02
2017-08-23T03:58:47.615Z,936.99
2017-08-23T03:59:15.700Z,936.97
2017-08-23T03:59:43.848Z,937.04
2017-08-23T04:00:11.805Z,937
2017-08-23T04:00:40.031Z,936.97
2017-08-23T04:01:08.241Z,936.88
2017-08-23T04:01:36.439Z,936.93
2017-08-23T04:02:04.723Z,936.93
2017-08-23T04:02:32.935Z,936.94
2017-08-23T04:03:01.150Z,936.92
2017-08-23T04:03:29.334Z,936.88
2017-08-23T04:03:57.520Z,936.9
2017-08-23T04:04:25.697Z,936.91
2017-08-23T04:04:53.635Z,936.91
2017-08-23T04:05:21.861Z,936.86
2017-08-23T04:05:49.979Z,936.83
2017-08-23T04:06:18.043Z,936.81
2017-08-23T04:06:46.299Z,936.84
2017-08-23T04:07:14.613Z,936.84
2017-08-23T04:07:42.850Z,936.87
2017-08-23T04:08:11.019Z,936.86
2017-08-23T04:08:39.079Z,936.87
2017-08-23T04:09:07.306Z,936.81
2017-08-23T04:09:35.374Z,936.92
2017-08-23T04:10:03.509Z,936.86
2017-08-23T04:10:31.785Z,936.88
2017-08-23T04:10:59.855Z,936.86
2017-08-23T04:11:28.136Z,936.91
2017-08-23T04:11:56.360Z,936.87
2017-08-23T04:12:24.631Z,936.94
2017-08-23T04:12:52.744Z,936.89
2017-08-23T04:13:20.997Z,936.84
2017-08-23T04:13:49.243Z,936.84
2017-08-23T04:14:17.501Z,936.79
2017-08-23T04:14:45.812Z,936.87
2017-08-23T04:15:14.042Z,936.85
2017-08-23T04:15:42.219Z,936.81
2017-08-23T04:16:10.468Z,936.82
2017-08-23T04:16:38.678Z,936.83
2017-08-23T04:17:06.904Z,936.82
2017-08-23T04:17:34.991Z,936.87
2017-08-23T04:18:03.048Z,936.88
2017-08-23T04:18:31.136Z,936.9
2017-08-23T04:18:59.274Z,936.86
2017-08-23T04:19:27.541Z,936.87
2017-08-23T04:19:55.644Z,936.92
2017-08-23T04:20:23.794Z,936.88
2017-08-23T04:20:52.045Z,936.89
2017-08-23T04:21:20.213Z,936.89
2017-08-23T04:21:48.498Z,936.88
2017-08-23T04:22:16.788Z,936.88
2017-08-23T04:22:44.879Z,936.89
2017-08-23T04:23:13.176Z,936.88
2017-08-23T04:23:41.244Z,936.86
2017-08-23T04:24:09.482Z,936.84
2017-08-23T04:24:37.722Z,936.82
2017-08-23T04:25:05.753Z,936.81
2017-08-23T04:25:34.050Z,936.82
2017-08-23T04:26:02.217Z,936.74
2017-08-23T04:26:30.367Z,936.75
2017-08-23T04:26:58.484Z,936.76
2017-08-23T04:27:26.836Z,936.73
2017-08-23T04:27:54.896Z,936.72
2017-08-23T04:28:22.962Z,936.74
2017-08-23T04:28:51.204Z,936.73
2017-08-23T04:29:19.349Z,936.7
2017-08-23T04:29:47.482Z,936.72
2017-08-23T04:30:15.635Z,936.72
2017-08-23T04:30:43.803Z,936.62
2017-08-23T04:31:11.952Z,936.7
2017-08-23T04:31:40.193Z,936.72
2017-08-23T04:32:08.436Z,936.65
2017-08-23T04:32:36.615Z,936.75
2017-08-23T04:33:04.781Z,936.63
2017-08-23T04:33:32.853Z,936.7
2017-08-23T04:34:01.006Z,936.68
2017-08-23T04:34:29.070Z,936.68
2017-08-23T04:34:57.192Z,936.66
2017-08-23T04:35:25.359Z,936.65
2017-08-23T04:35:53.551Z,936.64
2017-08-23T04:36:21.703Z,936.63
2017-08-23T04:36:49.999Z,936.62
2017-08-23T04:37:18.244Z,936.62
2017-08-23T04:37:46.565Z,936.66
2017-08-23T04:38:14.633Z,936.63
2017-08-23T04:38:42.748Z,936.65
2017-08-23T04:39:10.839Z,936.65
2017-08-23T04:39:39.094Z,936.59
2017-08-23T04:40:07.168Z,936.65
2017-08-23T04:40:35.317Z,936.61
2017-08-23T04:41:03.395Z,936.58
2017-08-23T04:41:31.537Z,936.63
2017-08-23T04:41:59.670Z,936.57
2017-08-23T04:42:27.708Z,936.51
2017-08-23T04:42:56.025Z,936.6
2017-08-23T04:43:24.286Z,936.6
2017-08-23T04:43:52.381Z,936.55
2017-08-23T04:44:20.491Z,936.58
2017-08-23T04:44:48.706Z,936.49
2017-08-23T04:45:16.972Z,936.52
2017-08-23T04:45:45.141Z,936.52
2017-08-23T04:46:13.303Z,936.53
2017-08-23T04:46:41.436Z,936.53
2017-08-23T04:47:09.540Z,936.5
2017-08-23T04:47:37.688Z,936.63
2017-08-23T04:48:05.934Z,936.56
2017-08-23T04:48:33.976Z,936.51
2017-08-23T04:49:02.123Z,936.55
2017-08-23T04:49:30.379Z,936.53
2017-08-23T04:49:58.618Z,936.56
2017-08-23T04:50:26.786Z,936.53
2017-08-23T04:50:54.906Z,936.53
2017-08-23T04:51:23.147Z,936.54
2017-08-23T04:51:51.131Z,936.54
2017-08-23T04:52:19.306Z,936.57
2017-08-23T04:52:47.588Z,936.58
2017-08-23T04:53:15.670Z,936.61
2017-08-23T04:53:43.892Z,936.59
2017-08-23T04:54:12.041Z,936.59
2017-08-23T04:54:40.090Z,936.57
2017-08-23T04:55:08.222Z,936.61
2017-08-23T04:55:36.485Z,936.63
2017-08-23T04:56:04.532Z,936.61
2017-08-23T04:56:32.802Z,936.61
2017-08-23T04:57:00.987Z,936.57
2017-08-23T04:57:29.122Z,936.58
2017-08-23T04:57:57.468Z,936.57
2017-08-23T04:58:25.601Z,936.56
2017-08-23T04:58:53.751Z,936.55
2017-08-23T04:59:21.821Z,936.46
2017-08-23T04:59:50.049Z,936.46
2017-08-23T05:00:18.201Z,936.55
2017-08-23T05:00:46.450Z,936.52
2017-08-23T05:01:14.546Z,936.54
2017-08-23T05:01:42.617Z,936.51
2017-08-23T05:02:10.776Z,936.58
2017-08-23T05:02:39.014Z,936.5
2017-08-23T05:03:07.031Z,936.53
2017-08-23T05:03:35.284Z,936.51
2017-08-23T05:04:03.239Z,936.51
2017-08-23T05:04:31.349Z,936.54
2017-08-23T05:04:59.503Z,936.52
2017-08-23T05:05:27.636Z,936.53
2017-08-23T05:05:55.634Z,936.5
2017-08-23T05:06:23.709Z,936.49
2017-08-23T05:06:52.003Z,936.51
2017-08-23T05:07:20.160Z,936.49
2017-08-23T05:07:48.214Z,936.48
2017-08-23T05:08:16.457Z,936.36
2017-08-23T05:08:44.601Z,936.43
2017-08-23T05:09:12.671Z,936.44
2017-08-23T05:09:40.590Z,936.47
2017-08-23T05:10:08.814Z,936.47
2017-08-23T05:10:37.037Z,936.45
2017-08-23T05:11:05.245Z,936.41
2017-08-23T05:11:33.493Z,936.4
2017-08-23T05:12:01.571Z,936.43
2017-08-23T05:12:29.724Z,936.45
2017-08-23T05:12:57.988Z,936.42
2017-08-23T05:13:26.343Z,936.44
2017-08-23T05:13:54.586Z,936.49
2017-08-23T05:14:22.804Z,936.47
2017-08-23T05:14:51.028Z,936.44
2017-08-23T05:15:19.296Z,936.45
2017-08-23T05:15:47.574Z,936.5
2017-08-23T05:16:15.796Z,936.45
2017-08-23T05:16:44.022Z,936.49
2017-08-23T05:17:12.149Z,936.44
2017-08-23T05:17:40.454Z,936.47
2017-08-23T05:18:08.772Z,936.39
2017-08-23T05:18:36.920Z,936.42
2017-08-23T05:19:05.154Z,936.42
2017-08-23T05:19:33.275Z,936.4
2017-08-23T05:20:01.358Z,936.44
2017-08-23T05:20:29.522Z,936.4
2017-08-23T05:20:57.670Z,936.43
2017-08-23T05:21:25.956Z,936.37
2017-08-23T05:21:54.132Z,936.38
2017-08-23T05:22:22.278Z,936.43
2017-08-23T05:22:50.526Z,936.45
2017-08-23T05:23:18.649Z,936.47
2017-08-23T05:23:46.880Z,936.5
2017-08-23T05:24:14.802Z,936.49
2017-08-23T05:24:42.818Z,936.48
2017-08-23T05:25:10.835Z,936.47
2017-08-23T05:25:39.011Z,936.5
2017-08-23T05:26:07.093Z,936.5
2017-08-23T05:26:35.133Z,936.46
2017-08-23T05:27:03.250Z,936.46
2017-08-23T05:27:31.298Z,936.49
2017-08-23T05:27:59.313Z,936.42
2017-08-23T05:28:27.579Z,936.44
2017-08-23T05:28:55.813Z,936.46
2017-08-23T05:29:24.000Z,936.45
2017-08-23T05:29:52.260Z,936.45
2017-08-23T05:30:20.506Z,936.4
2017-08-23T05:30:48.660Z,936.39
2017-08-23T05:31:16.971Z,936.41
2017-08-23T05:31:45.039Z,936.42
2017-08-23T05:32:13.216Z,936.4
2017-08-23T05:32:41.340Z,936.41
2017-08-23T05:33:09.450Z,936.4
2017-08-23T05:33:37.809Z,936.42
2017-08-23T05:34:06.079Z,936.41
2017-08-23T05:34:34.248Z,936.49
2017-08-23T05:35:02.342Z,936.47
2017-08-23T05:35:30.420Z,936.45
2017-08-23T05:35:58.643Z,936.46
2017-08-23T05:36:26.780Z,936.49
2017-08-23T05:36:54.941Z,936.44
2017-08-23T05:37:23.001Z,936.46
2017-08-23T05:37:51.135Z,936.44
2017-08-23T05:38:19.374Z,936.45
2017-08-23T05:38:47.631Z,936.42
2017-08-23T05:39:15.845Z,936.44
2017-08-23T05:39:43.942Z,936.4
2017-08-23T05:40:12.121Z,936.41
2017-08-23T05:40:40.103Z,936.39
2017-08-23T05:41:08.176Z,936.4
2017-08-23T05:41:36.430Z,936.41
2017-08-23T05:42:04.644Z,936.46
2017-08-23T05:42:32.846Z,936.3
2017-08-23T05:43:00.968Z,936.4
2017-08-23T05:43:29.213Z,936.45
2017-08-23T05:43:57.374Z,936.44
2017-08-23T05:44:25.437Z,936.43
2017-08-23T05:44:53.616Z,936.41
2017-08-23T05:45:21.704Z,936.43
2017-08-23T05:45:49.954Z,936.46
2017-08-23T05:46:18.124Z,936.42
2017-08-23T05:46:46.259Z,936.42
2017-08-23T05:47:14.427Z,936.49
2017-08-23T05:47:42.529Z,936.31
2017-08-23T05:48:10.662Z,936.35
2017-08-23T05:48:38.959Z,936.32
2017-08-23T05:49:07.039Z,936.35
2017-08-23T05:49:35.228Z,936.34
2017-08-23T05:50:03.336Z,936.31
2017-08-23T05:50:31.608Z,936.33
2017-08-23T05:50:59.882Z,936.26
2017-08-23T05:51:28.128Z,936.3
2017-08-23T05:51:56.272Z,936.29
2017-08-23T05:52:24.331Z,936.26